BAW43C EGKK-KMCO
Flight info
| Callsign | BAW43C |
|---|---|
| Flight time | N/A |
| Altitude | 36000 |
| Route | IMVUR1Z IMVUR N63 SAM N19 ADKIK DCT JOZMA DCT LULOX/M083F360 DCT SOMAX DCT 50N020W 48N030W 45N040W 4130N05000W/M083F380 DCT SOORY M204 LUNKR/M083F400 M204 BEXUM DCT SNAGY/N0476F400 M203 ADOOR M202 HOBEE AR6 HIBAC ALYNA4 |
| Aircraft | B772/H-SDE1E3FGHIJ3J5J6M1M2P2RWXYZ/LB1D1 |
Departure
| Time | 2026-05-08 07:30 |
|---|---|
| Airport | London Gatwick Airport (EGKK) |
Arrival
| Time | N/A |
|---|---|
| Airport | Orlando International Airport (KMCO) |
| Time | Latitude | Longitude | Altitude | Speed | Heading |
|---|---|---|---|---|---|
| 2026-05-08 06:47 | 51.15894 | -0.16770 | 209 ft | 0 kts | 208° |
| 2026-05-08 07:22 | 51.15895 | -0.16769 | 209 ft | 1 kts | 208° |
| 2026-05-08 07:22 | 51.15912 | -0.16755 | 209 ft | 4 kts | 210° |
| 2026-05-08 07:23 | 51.15932 | -0.16731 | 209 ft | 4 kts | 235° |
| 2026-05-08 07:23 | 51.15940 | -0.16708 | 209 ft | 4 kts | 263° |
| 2026-05-08 07:24 | 51.15941 | -0.16694 | 220 ft | 4 kts | 281° |
| 2026-05-08 07:24 | 51.15933 | -0.16666 | 219 ft | 4 kts | 327° |
| 2026-05-08 07:24 | 51.15910 | -0.16648 | 218 ft | 4 kts | 335° |
| 2026-05-08 07:24 | 51.15904 | -0.16644 | 209 ft | 0 kts | 336° |
| 2026-05-08 07:25 | 51.15907 | -0.16646 | 220 ft | 5 kts | 336° |
| 2026-05-08 07:26 | 51.15959 | -0.16722 | 219 ft | 11 kts | 298° |
| 2026-05-08 07:26 | 51.15977 | -0.16839 | 212 ft | 11 kts | 276° |
| 2026-05-08 07:26 | 51.15962 | -0.16956 | 217 ft | 12 kts | 244° |
| 2026-05-08 07:26 | 51.15878 | -0.17071 | 219 ft | 17 kts | 200° |
| 2026-05-08 07:27 | 51.15763 | -0.17068 | 212 ft | 17 kts | 168° |
| 2026-05-08 07:27 | 51.15653 | -0.17053 | 218 ft | 12 kts | 201° |
| 2026-05-08 07:27 | 51.15630 | -0.17141 | 218 ft | 18 kts | 256° |
| 2026-05-08 07:27 | 51.15587 | -0.17310 | 219 ft | 10 kts | 219° |
| 2026-05-08 07:28 | 51.15504 | -0.17304 | 218 ft | 19 kts | 165° |
| 2026-05-08 07:28 | 51.15369 | -0.17249 | 209 ft | 20 kts | 168° |
| 2026-05-08 07:28 | 51.15237 | -0.17189 | 215 ft | 19 kts | 166° |
| 2026-05-08 07:28 | 51.15208 | -0.17178 | 210 ft | 0 kts | 166° |
| 2026-05-08 07:29 | 51.15149 | -0.17156 | 215 ft | 15 kts | 167° |
| 2026-05-08 07:29 | 51.15071 | -0.17184 | 217 ft | 10 kts | 237° |
| 2026-05-08 07:29 | 51.15023 | -0.17530 | 221 ft | 65 kts | 258° |
| 2026-05-08 07:29 | 51.14874 | -0.18611 | 217 ft | 133 kts | 257° |
| 2026-05-08 07:30 | 51.14633 | -0.20336 | 287 ft | 179 kts | 257° |
| 2026-05-08 07:30 | 51.14355 | -0.22323 | 832 ft | 190 kts | 257° |
| 2026-05-08 07:30 | 51.14062 | -0.24433 | 1513 ft | 201 kts | 257° |
| 2026-05-08 07:30 | 51.13763 | -0.26596 | 1733 ft | 224 kts | 257° |
| 2026-05-08 07:31 | 51.13667 | -0.27292 | 1784 ft | 230 kts | 257° |
| 2026-05-08 07:32 | 51.13305 | -0.29925 | 1999 ft | 252 kts | 257° |
| 2026-05-08 07:32 | 51.12921 | -0.32698 | 2508 ft | 261 kts | 257° |
| 2026-05-08 07:32 | 51.12527 | -0.35551 | 3109 ft | 266 kts | 256° |
| 2026-05-08 07:32 | 51.12133 | -0.38393 | 3788 ft | 266 kts | 256° |
| 2026-05-08 07:33 | 51.11740 | -0.41264 | 4512 ft | 265 kts | 255° |
| 2026-05-08 07:33 | 51.11242 | -0.44086 | 5107 ft | 265 kts | 245° |
| 2026-05-08 07:33 | 51.10441 | -0.46746 | 5652 ft | 268 kts | 240° |
| 2026-05-08 07:33 | 51.09569 | -0.49372 | 6263 ft | 269 kts | 240° |
| 2026-05-08 07:34 | 51.08700 | -0.52024 | 6849 ft | 271 kts | 240° |
| 2026-05-08 07:34 | 51.07839 | -0.54710 | 7400 ft | 274 kts | 241° |
| 2026-05-08 07:34 | 51.06982 | -0.57427 | 7952 ft | 276 kts | 242° |
| 2026-05-08 07:34 | 51.06123 | -0.60168 | 8470 ft | 278 kts | 242° |
| 2026-05-08 07:35 | 51.05290 | -0.62962 | 8977 ft | 279 kts | 249° |
| 2026-05-08 07:35 | 51.04800 | -0.65985 | 9359 ft | 285 kts | 257° |
| 2026-05-08 07:35 | 51.04437 | -0.69088 | 9886 ft | 285 kts | 258° |
| 2026-05-08 07:35 | 51.04059 | -0.72192 | 10371 ft | 289 kts | 257° |
| 2026-05-08 07:36 | 51.03644 | -0.75411 | 10509 ft | 305 kts | 257° |
| 2026-05-08 07:36 | 51.03203 | -0.78755 | 10649 ft | 321 kts | 257° |
| 2026-05-08 07:36 | 51.02725 | -0.82321 | 10800 ft | 340 kts | 257° |
| 2026-05-08 07:36 | 51.02217 | -0.86070 | 11165 ft | 352 kts | 257° |
| 2026-05-08 07:37 | 51.01694 | -0.89907 | 11744 ft | 359 kts | 257° |
| 2026-05-08 07:37 | 51.01165 | -0.93788 | 12517 ft | 360 kts | 257° |
| 2026-05-08 07:37 | 51.00631 | -0.97685 | 13289 ft | 362 kts | 257° |
| 2026-05-08 07:37 | 51.00090 | -1.01619 | 13958 ft | 367 kts | 256° |
| 2026-05-08 07:38 | 50.99539 | -1.05600 | 14602 ft | 372 kts | 256° |
| 2026-05-08 07:38 | 50.98979 | -1.09633 | 15279 ft | 374 kts | 256° |
| 2026-05-08 07:38 | 50.98413 | -1.13694 | 15909 ft | 378 kts | 256° |
| 2026-05-08 07:38 | 50.97843 | -1.17782 | 16485 ft | 382 kts | 256° |
| 2026-05-08 07:39 | 50.97272 | -1.21871 | 17038 ft | 386 kts | 256° |
| 2026-05-08 07:39 | 50.96687 | -1.26057 | 17597 ft | 389 kts | 256° |
| 2026-05-08 07:39 | 50.96096 | -1.30263 | 18147 ft | 392 kts | 256° |
| 2026-05-08 07:39 | 50.95499 | -1.34500 | 18668 ft | 395 kts | 256° |
| 2026-05-08 07:40 | 50.94925 | -1.38791 | 19176 ft | 398 kts | 257° |
| 2026-05-08 07:40 | 50.94376 | -1.43117 | 19666 ft | 401 kts | 257° |
| 2026-05-08 07:40 | 50.93828 | -1.47476 | 20154 ft | 404 kts | 257° |
| 2026-05-08 07:40 | 50.93276 | -1.51854 | 20627 ft | 407 kts | 257° |
| 2026-05-08 07:41 | 50.92722 | -1.56217 | 21063 ft | 410 kts | 257° |
| 2026-05-08 07:41 | 50.92153 | -1.60671 | 21502 ft | 413 kts | 257° |
| 2026-05-08 07:41 | 50.91577 | -1.65149 | 21951 ft | 415 kts | 257° |
| 2026-05-08 07:41 | 50.90997 | -1.69643 | 22387 ft | 418 kts | 257° |
| 2026-05-08 07:42 | 50.90410 | -1.74171 | 22812 ft | 420 kts | 257° |
| 2026-05-08 07:42 | 50.89816 | -1.78724 | 23223 ft | 423 kts | 257° |
| 2026-05-08 07:42 | 50.89216 | -1.83307 | 23628 ft | 425 kts | 257° |
| 2026-05-08 07:42 | 50.88612 | -1.87913 | 24038 ft | 428 kts | 257° |
| 2026-05-08 07:43 | 50.88012 | -1.92485 | 24433 ft | 430 kts | 257° |
| 2026-05-08 07:43 | 50.87398 | -1.97144 | 24817 ft | 432 kts | 257° |
| 2026-05-08 07:43 | 50.86781 | -2.01815 | 25184 ft | 435 kts | 257° |
| 2026-05-08 07:43 | 50.86159 | -2.06514 | 25558 ft | 437 kts | 257° |
| 2026-05-08 07:44 | 50.85534 | -2.11228 | 25918 ft | 439 kts | 257° |
| 2026-05-08 07:44 | 50.84905 | -2.15962 | 26269 ft | 441 kts | 257° |
| 2026-05-08 07:44 | 50.84272 | -2.20718 | 26615 ft | 443 kts | 257° |
| 2026-05-08 07:44 | 50.83633 | -2.25505 | 26954 ft | 445 kts | 257° |
| 2026-05-08 07:45 | 50.82990 | -2.30303 | 27301 ft | 446 kts | 257° |
| 2026-05-08 07:45 | 50.82343 | -2.35119 | 27666 ft | 448 kts | 257° |
| 2026-05-08 07:45 | 50.81690 | -2.39940 | 27995 ft | 449 kts | 257° |
| 2026-05-08 07:45 | 50.81044 | -2.44732 | 28321 ft | 451 kts | 257° |
| 2026-05-08 07:46 | 50.80384 | -2.49595 | 28620 ft | 453 kts | 257° |
| 2026-05-08 07:46 | 50.79716 | -2.54473 | 28899 ft | 455 kts | 258° |
| 2026-05-08 07:46 | 50.79083 | -2.59390 | 29178 ft | 457 kts | 259° |
| 2026-05-08 07:46 | 50.78501 | -2.64339 | 29467 ft | 458 kts | 260° |
| 2026-05-08 07:47 | 50.77939 | -2.69305 | 29752 ft | 459 kts | 260° |
| 2026-05-08 07:47 | 50.77379 | -2.74279 | 30020 ft | 461 kts | 260° |
| 2026-05-08 07:47 | 50.76816 | -2.79214 | 30262 ft | 462 kts | 260° |
| 2026-05-08 07:47 | 50.76235 | -2.84227 | 30493 ft | 464 kts | 260° |
| 2026-05-08 07:48 | 50.75647 | -2.89246 | 30715 ft | 465 kts | 260° |
| 2026-05-08 07:48 | 50.75051 | -2.94276 | 30973 ft | 465 kts | 260° |
| 2026-05-08 07:48 | 50.74656 | -2.97595 | 31191 ft | 464 kts | 261° |
| 2026-05-08 07:48 | 50.74060 | -3.02582 | 31546 ft | 461 kts | 261° |
| 2026-05-08 07:49 | 50.73463 | -3.07546 | 31890 ft | 459 kts | 261° |
| 2026-05-08 07:49 | 50.72867 | -3.12496 | 32199 ft | 458 kts | 261° |
| 2026-05-08 07:49 | 50.72270 | -3.17431 | 32528 ft | 457 kts | 261° |
| 2026-05-08 07:49 | 50.71674 | -3.22337 | 32863 ft | 455 kts | 261° |
| 2026-05-08 07:50 | 50.71079 | -3.27231 | 33147 ft | 454 kts | 261° |
| 2026-05-08 07:50 | 50.70483 | -3.32119 | 33475 ft | 452 kts | 261° |
| 2026-05-08 07:50 | 50.69889 | -3.36970 | 33806 ft | 449 kts | 261° |
| 2026-05-08 07:50 | 50.69294 | -3.41802 | 34095 ft | 448 kts | 262° |
| 2026-05-08 07:51 | 50.68701 | -3.46613 | 34388 ft | 447 kts | 262° |
| 2026-05-08 07:51 | 50.68105 | -3.51423 | 34600 ft | 447 kts | 261° |
| 2026-05-08 07:51 | 50.67507 | -3.56230 | 34779 ft | 448 kts | 261° |
| 2026-05-08 07:51 | 50.66906 | -3.61049 | 34987 ft | 448 kts | 261° |
| 2026-05-08 07:52 | 50.66311 | -3.65796 | 35222 ft | 447 kts | 261° |
| 2026-05-08 07:52 | 50.65706 | -3.70604 | 35444 ft | 447 kts | 261° |
| 2026-05-08 07:52 | 50.65101 | -3.75414 | 35640 ft | 447 kts | 261° |
| 2026-05-08 07:52 | 50.64493 | -3.80227 | 35808 ft | 448 kts | 261° |
| 2026-05-08 07:53 | 50.63881 | -3.85039 | 35927 ft | 449 kts | 261° |
| 2026-05-08 07:53 | 50.62696 | -3.94761 | 36013 ft | 452 kts | 264° |
| 2026-05-08 07:54 | 50.62164 | -4.04527 | 36023 ft | 447 kts | 268° |
| 2026-05-08 07:54 | 50.61732 | -4.14199 | 36014 ft | 440 kts | 268° |
| 2026-05-08 07:55 | 50.61283 | -4.23810 | 36019 ft | 439 kts | 268° |
| 2026-05-08 07:55 | 50.60816 | -4.33393 | 36020 ft | 439 kts | 267° |
| 2026-05-08 07:56 | 50.60335 | -4.42982 | 36019 ft | 440 kts | 267° |
| 2026-05-08 07:56 | 50.59844 | -4.52591 | 36019 ft | 440 kts | 267° |
| 2026-05-08 07:57 | 50.59347 | -4.62144 | 36020 ft | 441 kts | 267° |
| 2026-05-08 07:57 | 50.58839 | -4.71765 | 36020 ft | 441 kts | 267° |
| 2026-05-08 07:58 | 50.58324 | -4.81394 | 36017 ft | 442 kts | 266° |
| 2026-05-08 07:58 | 50.57802 | -4.91045 | 36021 ft | 442 kts | 266° |
| 2026-05-08 07:59 | 50.57268 | -5.00682 | 36015 ft | 442 kts | 266° |
| 2026-05-08 07:59 | 50.56723 | -5.10305 | 36018 ft | 441 kts | 266° |
| 2026-05-08 08:00 | 50.56183 | -5.19833 | 36019 ft | 439 kts | 266° |
| 2026-05-08 08:00 | 50.55634 | -5.29409 | 36017 ft | 438 kts | 266° |
| 2026-05-08 08:01 | 50.55074 | -5.38956 | 36017 ft | 437 kts | 266° |
| 2026-05-08 08:01 | 50.54513 | -5.48415 | 36021 ft | 436 kts | 265° |
| 2026-05-08 08:02 | 50.53940 | -5.57906 | 36010 ft | 436 kts | 265° |
| 2026-05-08 08:02 | 50.53361 | -5.67387 | 35999 ft | 435 kts | 265° |
| 2026-05-08 08:03 | 50.52773 | -5.76867 | 36001 ft | 435 kts | 265° |
| 2026-05-08 08:03 | 50.52179 | -5.86347 | 36007 ft | 435 kts | 265° |
| 2026-05-08 08:04 | 50.51585 | -5.95737 | 36010 ft | 435 kts | 265° |
| 2026-05-08 08:04 | 50.50976 | -6.05196 | 36013 ft | 435 kts | 265° |
| 2026-05-08 08:05 | 50.50361 | -6.14640 | 36008 ft | 434 kts | 264° |
| 2026-05-08 08:05 | 50.49737 | -6.24073 | 36010 ft | 434 kts | 264° |
| 2026-05-08 08:06 | 50.49108 | -6.33502 | 36009 ft | 434 kts | 264° |
| 2026-05-08 08:06 | 50.48472 | -6.42911 | 36022 ft | 433 kts | 264° |
| 2026-05-08 08:07 | 50.47832 | -6.52255 | 36030 ft | 433 kts | 264° |
| 2026-05-08 08:07 | 50.47181 | -6.61675 | 36030 ft | 433 kts | 264° |
| 2026-05-08 08:08 | 50.46520 | -6.71090 | 36026 ft | 433 kts | 264° |
| 2026-05-08 08:08 | 50.45851 | -6.80497 | 36028 ft | 434 kts | 264° |
| 2026-05-08 08:09 | 50.45179 | -6.89857 | 36029 ft | 434 kts | 263° |
| 2026-05-08 08:09 | 50.44498 | -6.99264 | 36028 ft | 434 kts | 263° |
| 2026-05-08 08:10 | 50.43809 | -7.08678 | 36031 ft | 434 kts | 263° |
| 2026-05-08 08:10 | 50.43109 | -7.18099 | 36027 ft | 434 kts | 263° |
| 2026-05-08 08:11 | 50.42401 | -7.27506 | 36029 ft | 434 kts | 263° |
| 2026-05-08 08:11 | 50.41687 | -7.36911 | 36026 ft | 434 kts | 263° |
| 2026-05-08 08:12 | 50.40965 | -7.46327 | 36029 ft | 435 kts | 263° |
| 2026-05-08 08:12 | 50.40236 | -7.55735 | 36027 ft | 435 kts | 262° |
| 2026-05-08 08:13 | 50.39498 | -7.65138 | 36026 ft | 435 kts | 262° |
| 2026-05-08 08:13 | 50.38756 | -7.74514 | 36029 ft | 435 kts | 262° |
| 2026-05-08 08:14 | 50.38002 | -7.83931 | 36029 ft | 435 kts | 262° |
| 2026-05-08 08:14 | 50.37242 | -7.93351 | 36028 ft | 436 kts | 262° |
| 2026-05-08 08:15 | 50.36596 | -8.02803 | 36028 ft | 437 kts | 266° |
| 2026-05-08 08:15 | 50.36388 | -8.12250 | 36028 ft | 437 kts | 266° |
| 2026-05-08 08:16 | 50.36181 | -8.21770 | 36029 ft | 437 kts | 266° |
| 2026-05-08 08:16 | 50.35960 | -8.31284 | 36026 ft | 437 kts | 266° |
| 2026-05-08 08:17 | 50.35723 | -8.40798 | 36027 ft | 437 kts | 266° |
| 2026-05-08 08:17 | 50.35476 | -8.50314 | 36029 ft | 437 kts | 266° |
| 2026-05-08 08:18 | 50.35220 | -8.59835 | 36021 ft | 437 kts | 266° |
| 2026-05-08 08:18 | 50.34956 | -8.69362 | 36020 ft | 437 kts | 266° |
| 2026-05-08 08:19 | 50.34686 | -8.78808 | 36018 ft | 436 kts | 265° |
| 2026-05-08 08:19 | 50.34407 | -8.88315 | 36020 ft | 436 kts | 265° |
| 2026-05-08 08:20 | 50.34123 | -8.97803 | 36018 ft | 436 kts | 265° |
| 2026-05-08 08:20 | 50.33828 | -9.07284 | 36018 ft | 436 kts | 265° |
| 2026-05-08 08:21 | 50.33526 | -9.16763 | 36020 ft | 436 kts | 265° |
| 2026-05-08 08:21 | 50.33220 | -9.26251 | 36020 ft | 436 kts | 265° |
| 2026-05-08 08:22 | 50.32905 | -9.35678 | 36018 ft | 437 kts | 265° |
| 2026-05-08 08:22 | 50.32575 | -9.45190 | 36016 ft | 437 kts | 264° |
| 2026-05-08 08:23 | 50.32244 | -9.54712 | 36020 ft | 438 kts | 264° |
| 2026-05-08 08:23 | 50.31903 | -9.64253 | 36019 ft | 439 kts | 264° |
| 2026-05-08 08:24 | 50.31557 | -9.73756 | 36019 ft | 440 kts | 264° |
| 2026-05-08 08:24 | 50.31197 | -9.83340 | 36019 ft | 441 kts | 264° |
| 2026-05-08 08:25 | 50.30831 | -9.92916 | 36018 ft | 442 kts | 264° |
| 2026-05-08 08:25 | 50.30454 | -10.02507 | 36019 ft | 442 kts | 264° |
| 2026-05-08 08:26 | 50.30069 | -10.12115 | 36020 ft | 442 kts | 264° |
| 2026-05-08 08:26 | 50.29677 | -10.21710 | 36017 ft | 442 kts | 264° |
| 2026-05-08 08:27 | 50.29282 | -10.31242 | 36018 ft | 441 kts | 263° |
| 2026-05-08 08:27 | 50.28875 | -10.40822 | 36019 ft | 441 kts | 263° |
| 2026-05-08 08:28 | 50.28457 | -10.50426 | 36020 ft | 441 kts | 263° |
| 2026-05-08 08:28 | 50.28037 | -10.59996 | 36018 ft | 441 kts | 263° |
| 2026-05-08 08:29 | 50.27609 | -10.69502 | 36019 ft | 441 kts | 263° |
| 2026-05-08 08:29 | 50.27170 | -10.79054 | 36018 ft | 440 kts | 263° |
| 2026-05-08 08:30 | 50.26726 | -10.88597 | 36019 ft | 440 kts | 263° |
| 2026-05-08 08:30 | 50.26047 | -11.02864 | 36017 ft | 440 kts | 263° |
| 2026-05-08 08:31 | 50.25583 | -11.12400 | 36018 ft | 440 kts | 262° |
| 2026-05-08 08:31 | 50.25111 | -11.21946 | 36019 ft | 440 kts | 262° |
| 2026-05-08 08:32 | 50.24631 | -11.31496 | 36019 ft | 440 kts | 262° |
| 2026-05-08 08:32 | 50.24147 | -11.40966 | 36017 ft | 440 kts | 262° |
| 2026-05-08 08:33 | 50.23651 | -11.50507 | 36019 ft | 440 kts | 262° |
| 2026-05-08 08:33 | 50.23144 | -11.60061 | 36019 ft | 441 kts | 262° |
| 2026-05-08 08:34 | 50.22634 | -11.69574 | 36020 ft | 442 kts | 262° |
| 2026-05-08 08:34 | 50.22112 | -11.79146 | 36017 ft | 443 kts | 262° |
| 2026-05-08 08:35 | 50.21583 | -11.88740 | 36020 ft | 444 kts | 262° |
| 2026-05-08 08:35 | 50.21044 | -11.98341 | 36019 ft | 444 kts | 261° |
| 2026-05-08 08:36 | 50.20497 | -12.07950 | 36019 ft | 444 kts | 261° |
| 2026-05-08 08:36 | 50.19941 | -12.17578 | 36020 ft | 445 kts | 261° |
| 2026-05-08 08:37 | 50.19380 | -12.27143 | 36018 ft | 445 kts | 261° |
| 2026-05-08 08:37 | 50.18806 | -12.36766 | 36020 ft | 445 kts | 261° |
| 2026-05-08 08:38 | 50.18226 | -12.46378 | 36019 ft | 445 kts | 261° |
| 2026-05-08 08:38 | 50.17739 | -12.54361 | 36017 ft | 444 kts | 261° |
| 2026-05-08 08:39 | 50.17146 | -12.63947 | 36018 ft | 443 kts | 261° |
| 2026-05-08 08:39 | 50.16547 | -12.73517 | 36020 ft | 443 kts | 261° |
| 2026-05-08 08:40 | 50.15940 | -12.83072 | 36017 ft | 442 kts | 261° |
| 2026-05-08 08:40 | 50.15325 | -12.92622 | 36020 ft | 442 kts | 261° |
| 2026-05-08 08:41 | 50.14706 | -13.02108 | 36019 ft | 442 kts | 261° |
| 2026-05-08 08:41 | 50.14075 | -13.11660 | 36018 ft | 442 kts | 261° |
| 2026-05-08 08:42 | 50.13435 | -13.21237 | 36018 ft | 443 kts | 260° |
| 2026-05-08 08:42 | 50.12790 | -13.30749 | 36018 ft | 443 kts | 260° |
| 2026-05-08 08:43 | 50.12134 | -13.40326 | 36012 ft | 444 kts | 260° |
| 2026-05-08 08:43 | 50.11474 | -13.49869 | 36000 ft | 445 kts | 260° |
| 2026-05-08 08:44 | 50.10799 | -13.59464 | 35997 ft | 446 kts | 260° |
| 2026-05-08 08:44 | 50.10114 | -13.69078 | 36001 ft | 446 kts | 260° |
| 2026-05-08 08:45 | 50.09423 | -13.78706 | 36002 ft | 447 kts | 260° |
| 2026-05-08 08:45 | 50.08722 | -13.88344 | 36009 ft | 448 kts | 260° |
| 2026-05-08 08:46 | 50.08012 | -13.97987 | 36018 ft | 448 kts | 260° |
| 2026-05-08 08:46 | 50.07293 | -14.07635 | 36019 ft | 449 kts | 259° |
| 2026-05-08 08:47 | 50.06564 | -14.17290 | 36020 ft | 450 kts | 259° |
| 2026-05-08 08:47 | 50.05832 | -14.26890 | 36017 ft | 449 kts | 259° |
| 2026-05-08 08:48 | 50.05091 | -14.36551 | 36019 ft | 449 kts | 259° |
| 2026-05-08 08:48 | 50.04341 | -14.46208 | 36016 ft | 449 kts | 259° |
| 2026-05-08 08:49 | 50.03582 | -14.55838 | 36019 ft | 448 kts | 259° |
| 2026-05-08 08:49 | 50.02812 | -14.65438 | 36017 ft | 447 kts | 259° |
| 2026-05-08 08:50 | 50.02041 | -14.75041 | 36014 ft | 447 kts | 259° |
| 2026-05-08 08:50 | 50.01273 | -14.84558 | 36008 ft | 446 kts | 259° |
| 2026-05-08 08:51 | 50.00486 | -14.94116 | 36009 ft | 444 kts | 259° |
| 2026-05-08 08:51 | 50.00015 | -15.03717 | 36008 ft | 449 kts | 267° |
| 2026-05-08 08:52 | 50.00244 | -15.13435 | 36012 ft | 450 kts | 268° |
| 2026-05-08 08:52 | 50.00459 | -15.23112 | 36008 ft | 451 kts | 267° |
| 2026-05-08 08:53 | 50.00651 | -15.32850 | 36013 ft | 451 kts | 267° |
| 2026-05-08 08:53 | 50.00836 | -15.42617 | 36019 ft | 452 kts | 267° |
| 2026-05-08 08:54 | 50.01005 | -15.52394 | 36019 ft | 453 kts | 266° |
| 2026-05-08 08:54 | 50.01166 | -15.62148 | 36020 ft | 454 kts | 266° |
| 2026-05-08 08:55 | 50.01320 | -15.71978 | 36018 ft | 454 kts | 266° |
| 2026-05-08 08:55 | 50.01467 | -15.81817 | 36023 ft | 455 kts | 266° |
| 2026-05-08 08:56 | 50.01606 | -15.91665 | 36017 ft | 456 kts | 266° |
| 2026-05-08 08:56 | 50.01734 | -16.01484 | 36020 ft | 457 kts | 266° |
| 2026-05-08 08:57 | 50.01854 | -16.11365 | 36018 ft | 457 kts | 266° |
| 2026-05-08 08:57 | 50.01969 | -16.21256 | 36019 ft | 457 kts | 266° |
| 2026-05-08 08:58 | 50.02075 | -16.31127 | 36019 ft | 456 kts | 266° |
| 2026-05-08 08:58 | 50.02172 | -16.41004 | 36017 ft | 455 kts | 266° |
| 2026-05-08 08:59 | 50.02259 | -16.50793 | 36017 ft | 454 kts | 266° |
| 2026-05-08 08:59 | 50.02329 | -16.60590 | 36007 ft | 452 kts | 266° |
| 2026-05-08 09:00 | 50.02400 | -16.70352 | 36016 ft | 452 kts | 266° |
| 2026-05-08 09:00 | 50.02467 | -16.80124 | 36007 ft | 452 kts | 266° |
| 2026-05-08 09:01 | 50.02522 | -16.89883 | 36006 ft | 457 kts | 266° |
| 2026-05-08 09:01 | 50.02572 | -16.99856 | 36017 ft | 465 kts | 266° |
| 2026-05-08 09:02 | 50.02612 | -17.09961 | 36014 ft | 468 kts | 266° |
| 2026-05-08 09:02 | 50.02643 | -17.20108 | 36008 ft | 469 kts | 266° |
| 2026-05-08 09:03 | 50.02670 | -17.30157 | 36001 ft | 461 kts | 266° |
| 2026-05-08 09:03 | 50.02683 | -17.40113 | 36011 ft | 460 kts | 266° |
| 2026-05-08 09:04 | 50.02684 | -17.50053 | 36008 ft | 460 kts | 266° |
| 2026-05-08 09:04 | 50.02680 | -17.59947 | 36014 ft | 460 kts | 266° |
| 2026-05-08 09:05 | 50.02666 | -17.69918 | 36019 ft | 461 kts | 266° |
| 2026-05-08 09:05 | 50.02644 | -17.79903 | 36018 ft | 462 kts | 265° |
| 2026-05-08 09:06 | 50.02615 | -17.89928 | 36021 ft | 463 kts | 265° |
| 2026-05-08 09:06 | 50.02576 | -17.99972 | 36019 ft | 465 kts | 265° |
| 2026-05-08 09:07 | 50.02528 | -18.09981 | 36021 ft | 466 kts | 265° |
| 2026-05-08 09:07 | 50.02471 | -18.20067 | 36019 ft | 466 kts | 265° |
| 2026-05-08 09:08 | 50.02405 | -18.30166 | 36019 ft | 466 kts | 265° |
| 2026-05-08 09:08 | 50.02332 | -18.40255 | 36016 ft | 466 kts | 265° |
| 2026-05-08 09:09 | 50.02250 | -18.50325 | 36018 ft | 465 kts | 265° |
| 2026-05-08 09:09 | 50.02160 | -18.60383 | 36017 ft | 464 kts | 265° |
| 2026-05-08 09:10 | 50.02061 | -18.70413 | 36018 ft | 464 kts | 265° |
| 2026-05-08 09:10 | 50.01956 | -18.80381 | 36018 ft | 464 kts | 265° |
| 2026-05-08 09:11 | 50.01836 | -18.90414 | 36019 ft | 464 kts | 266° |
| 2026-05-08 09:11 | 50.01709 | -19.00460 | 36019 ft | 464 kts | 266° |
| 2026-05-08 09:12 | 50.01575 | -19.10517 | 36019 ft | 465 kts | 266° |
| 2026-05-08 09:12 | 50.01435 | -19.20522 | 36019 ft | 466 kts | 266° |
| 2026-05-08 09:13 | 50.01282 | -19.30608 | 36019 ft | 467 kts | 266° |
| 2026-05-08 09:13 | 50.01121 | -19.40725 | 36019 ft | 468 kts | 266° |
| 2026-05-08 09:14 | 50.00950 | -19.50867 | 36019 ft | 469 kts | 266° |
| 2026-05-08 09:14 | 50.00769 | -19.61011 | 36021 ft | 470 kts | 266° |
| 2026-05-08 09:15 | 50.00582 | -19.71200 | 36019 ft | 471 kts | 266° |
| 2026-05-08 09:15 | 50.00387 | -19.81380 | 36015 ft | 471 kts | 266° |
| 2026-05-08 09:16 | 50.00180 | -19.91532 | 36012 ft | 471 kts | 266° |
| 2026-05-08 09:16 | 49.99741 | -20.01671 | 36008 ft | 469 kts | 259° |
| 2026-05-08 09:17 | 49.98340 | -20.11559 | 36012 ft | 468 kts | 255° |